Tyler, Washington
Current Conditions -  °F | °C
As of 3:58 PM on Wednesday 26 Nov 2014 (Local Time) from KSKA Reporting Station
Moderate Fog Moderate Fog  
Wind Chill: 38°   Ceiling: 300
Heat Index: 38°   Visibility: 0.5mi
Dew Point: 38°   Wind: 3mph
Humidity: 100%   Direction: 40°NE
Pressure: 30.09"   Gusts: NA
Location:  47.411°N, 117.628°W
Report Text: KSKA 262358Z AUTO 04003KT 1/2SM R23/P6000FT FG VV003 03/03 A3009 RMK AO2 UPB2333E2343 SLP211 P0000 60000 T00310031 10058 20021 400580002 55004
Loading
Personal Weather Stations






























Interactive Weather Map New forecast layout! Learn more

10-Day Weather Forecast

Advertisements
Track Severe Weather on mobile